sensor_id;sensor_type;location;lat;lon;timestamp;temperature;humidity
3727;DHT22;1879;45.876;12.300;2023-04-15T00:00:57;10.20;99.90
3727;DHT22;1879;45.876;12.300;2023-04-15T00:03:25;10.20;99.90
3727;DHT22;1879;45.876;12.300;2023-04-15T00:05:52;10.20;99.90
3727;DHT22;1879;45.876;12.300;2023-04-15T00:08:19;10.30;99.90
3727;DHT22;1879;45.876;12.300;2023-04-15T00:10:46;10.30;99.90
3727;DHT22;1879;45.876;12.300;2023-04-15T00:13:13;10.30;99.90
3727;DHT22;1879;45.876;12.300;2023-04-15T00:15:41;10.30;99.90
3727;DHT22;1879;45.876;12.300;2023-04-15T00:18:08;10.30;99.90
3727;DHT22;1879;45.876;12.300;2023-04-15T00:20:36;10.30;99.90
3727;DHT22;1879;45.876;12.300;2023-04-15T00:23:03;10.30;99.90
3727;DHT22;1879;45.876;12.300;2023-04-15T00:25:30;10.30;99.90
3727;DHT22;1879;45.876;12.300;2023-04-15T00:27:57;10.30;99.90
3727;DHT22;1879;45.876;12.300;2023-04-15T00:30:24;10.30;99.90
3727;DHT22;1879;45.876;12.300;2023-04-15T00:32:51;10.20;99.90
3727;DHT22;1879;45.876;12.300;2023-04-15T00:35:18;10.20;99.90
3727;DHT22;1879;45.876;12.300;2023-04-15T00:37:46;10.10;99.90
3727;DHT22;1879;45.876;12.300;2023-04-15T00:40:15;10.10;99.90
3727;DHT22;1879;45.876;12.300;2023-04-15T00:42:44;10.20;99.90
3727;DHT22;1879;45.876;12.300;2023-04-15T00:45:11;10.20;99.90
3727;DHT22;1879;45.876;12.300;2023-04-15T00:47:40;10.20;99.90
3727;DHT22;1879;45.876;12.300;2023-04-15T00:50:08;10.10;99.90
3727;DHT22;1879;45.876;12.300;2023-04-15T00:52:35;10.10;99.90
3727;DHT22;1879;45.876;12.300;2023-04-15T00:55:05;10.00;99.90
3727;DHT22;1879;45.876;12.300;2023-04-15T00:57:32;10.00;99.90
3727;DHT22;1879;45.876;12.300;2023-04-15T00:59:59;10.00;99.90
3727;DHT22;1879;45.876;12.300;2023-04-15T01:02:27;10.00;99.90
3727;DHT22;1879;45.876;12.300;2023-04-15T01:04:54;10.00;99.90
3727;DHT22;1879;45.876;12.300;2023-04-15T01:07:22;10.00;99.90
3727;DHT22;1879;45.876;12.300;2023-04-15T01:09:49;10.10;99.90
3727;DHT22;1879;45.876;12.300;2023-04-15T01:12:18;10.10;99.90
3727;DHT22;1879;45.876;12.300;2023-04-15T01:14:45;10.10;99.90
3727;DHT22;1879;45.876;12.300;2023-04-15T01:17:13;10.10;99.90
3727;DHT22;1879;45.876;12.300;2023-04-15T01:19:40;10.20;99.90
3727;DHT22;1879;45.876;12.300;2023-04-15T01:22:07;10.20;99.90
3727;DHT22;1879;45.876;12.300;2023-04-15T01:24:35;10.20;99.90
3727;DHT22;1879;45.876;12.300;2023-04-15T01:27:04;10.10;99.90
3727;DHT22;1879;45.876;12.300;2023-04-15T01:29:35;10.20;99.90
3727;DHT22;1879;45.876;12.300;2023-04-15T01:32:02;10.20;99.90
3727;DHT22;1879;45.876;12.300;2023-04-15T01:34:30;10.10;99.90
3727;DHT22;1879;45.876;12.300;2023-04-15T01:36:57;10.10;99.90
3727;DHT22;1879;45.876;12.300;2023-04-15T01:39:24;10.10;99.90
3727;DHT22;1879;45.876;12.300;2023-04-15T01:41:51;10.10;99.90
3727;DHT22;1879;45.876;12.300;2023-04-15T01:44:19;10.00;99.90
3727;DHT22;1879;45.876;12.300;2023-04-15T01:46:47;10.00;99.90
3727;DHT22;1879;45.876;12.300;2023-04-15T01:49:14;10.00;99.90
3727;DHT22;1879;45.876;12.300;2023-04-15T01:51:41;10.00;99.90
3727;DHT22;1879;45.876;12.300;2023-04-15T01:54:08;10.00;99.90
3727;DHT22;1879;45.876;12.300;2023-04-15T01:56:35;9.90;99.90
3727;DHT22;1879;45.876;12.300;2023-04-15T01:59:03;9.90;99.90
3727;DHT22;1879;45.876;12.300;2023-04-15T02:01:32;9.90;99.90
3727;DHT22;1879;45.876;12.300;2023-04-15T02:03:59;9.90;99.90
3727;DHT22;1879;45.876;12.300;2023-04-15T02:06:26;10.00;99.90
3727;DHT22;1879;45.876;12.300;2023-04-15T02:08:53;10.00;99.90
3727;DHT22;1879;45.876;12.300;2023-04-15T02:11:20;10.00;99.90
3727;DHT22;1879;45.876;12.300;2023-04-15T02:13:48;9.90;99.90
3727;DHT22;1879;45.876;12.300;2023-04-15T02:16:15;9.80;99.90
3727;DHT22;1879;45.876;12.300;2023-04-15T02:18:45;9.70;99.90
3727;DHT22;1879;45.876;12.300;2023-04-15T02:21:12;9.60;99.90
3727;DHT22;1879;45.876;12.300;2023-04-15T02:23:39;9.60;99.90
3727;DHT22;1879;45.876;12.300;2023-04-15T02:26:06;9.70;99.90
3727;DHT22;1879;45.876;12.300;2023-04-15T02:28:33;9.70;99.90
3727;DHT22;1879;45.876;12.300;2023-04-15T02:31:04;9.80;99.90
3727;DHT22;1879;45.876;12.300;2023-04-15T02:33:31;9.90;99.90
3727;DHT22;1879;45.876;12.300;2023-04-15T02:35:59;9.80;99.90
3727;DHT22;1879;45.876;12.300;2023-04-15T02:38:26;9.80;99.90
3727;DHT22;1879;45.876;12.300;2023-04-15T02:40:53;9.90;99.90
3727;DHT22;1879;45.876;12.300;2023-04-15T02:43:21;9.90;99.90
3727;DHT22;1879;45.876;12.300;2023-04-15T02:45:48;9.90;99.90
3727;DHT22;1879;45.876;12.300;2023-04-15T02:48:15;9.90;99.90
3727;DHT22;1879;45.876;12.300;2023-04-15T02:50:45;9.80;99.90
3727;DHT22;1879;45.876;12.300;2023-04-15T02:53:13;9.80;99.90
3727;DHT22;1879;45.876;12.300;2023-04-15T02:55:40;9.80;99.90
3727;DHT22;1879;45.876;12.300;2023-04-15T02:58:08;9.70;99.90
3727;DHT22;1879;45.876;12.300;2023-04-15T03:00:35;9.70;99.90
3727;DHT22;1879;45.876;12.300;2023-04-15T03:03:03;9.70;99.90
3727;DHT22;1879;45.876;12.300;2023-04-15T03:05:30;9.60;99.90
3727;DHT22;1879;45.876;12.300;2023-04-15T03:07:57;9.60;99.90
3727;DHT22;1879;45.876;12.300;2023-04-15T03:10:27;9.60;99.90
3727;DHT22;1879;45.876;12.300;2023-04-15T03:12:54;9.60;99.90
3727;DHT22;1879;45.876;12.300;2023-04-15T03:15:21;9.60;99.90
3727;DHT22;1879;45.876;12.300;2023-04-15T03:17:48;9.60;99.90
3727;DHT22;1879;45.876;12.300;2023-04-15T03:20:15;9.70;99.90
3727;DHT22;1879;45.876;12.300;2023-04-15T03:22:42;9.70;99.90
3727;DHT22;1879;45.876;12.300;2023-04-15T03:25:09;9.70;99.90
3727;DHT22;1879;45.876;12.300;2023-04-15T03:27:41;9.80;99.90
3727;DHT22;1879;45.876;12.300;2023-04-15T03:30:09;10.10;99.90
3727;DHT22;1879;45.876;12.300;2023-04-15T03:32:36;9.80;99.90
3727;DHT22;1879;45.876;12.300;2023-04-15T03:35:03;9.80;99.90
3727;DHT22;1879;45.876;12.300;2023-04-15T03:37:31;9.90;99.90
3727;DHT22;1879;45.876;12.300;2023-04-15T03:39:57;9.90;99.90
3727;DHT22;1879;45.876;12.300;2023-04-15T03:42:25;9.90;99.90
3727;DHT22;1879;45.876;12.300;2023-04-15T03:44:53;9.90;99.90
3727;DHT22;1879;45.876;12.300;2023-04-15T03:47:20;9.90;99.90
3727;DHT22;1879;45.876;12.300;2023-04-15T03:49:47;10.00;99.90
3727;DHT22;1879;45.876;12.300;2023-04-15T03:52:14;10.00;99.90
3727;DHT22;1879;45.876;12.300;2023-04-15T03:54:41;10.10;99.90
3727;DHT22;1879;45.876;12.300;2023-04-15T03:57:08;10.10;99.90
3727;DHT22;1879;45.876;12.300;2023-04-15T03:59:35;10.10;99.90
3727;DHT22;1879;45.876;12.300;2023-04-15T04:02:03;10.10;99.90
3727;DHT22;1879;45.876;12.300;2023-04-15T04:04:30;10.10;99.90
3727;DHT22;1879;45.876;12.300;2023-04-15T04:06:57;10.20;99.90
3727;DHT22;1879;45.876;12.300;2023-04-15T04:09:24;10.20;99.90
3727;DHT22;1879;45.876;12.300;2023-04-15T04:11:51;10.20;99.90
3727;DHT22;1879;45.876;12.300;2023-04-15T04:14:18;10.20;99.90
3727;DHT22;1879;45.876;12.300;2023-04-15T04:16:45;10.30;99.90
3727;DHT22;1879;45.876;12.300;2023-04-15T04:19:14;10.20;99.90
3727;DHT22;1879;45.876;12.300;2023-04-15T04:21:44;10.20;99.90
3727;DHT22;1879;45.876;12.300;2023-04-15T04:24:11;10.20;99.90
3727;DHT22;1879;45.876;12.300;2023-04-15T04:26:38;10.20;99.90
3727;DHT22;1879;45.876;12.300;2023-04-15T04:29:05;10.20;99.90
3727;DHT22;1879;45.876;12.300;2023-04-15T04:31:32;10.20;99.90
3727;DHT22;1879;45.876;12.300;2023-04-15T04:33:59;10.10;99.90
3727;DHT22;1879;45.876;12.300;2023-04-15T04:36:27;10.20;99.90
3727;DHT22;1879;45.876;12.300;2023-04-15T04:38:54;10.20;99.90
3727;DHT22;1879;45.876;12.300;2023-04-15T04:41:21;10.20;99.90
3727;DHT22;1879;45.876;12.300;2023-04-15T04:43:48;10.20;99.90
3727;DHT22;1879;45.876;12.300;2023-04-15T04:46:15;10.20;99.90
3727;DHT22;1879;45.876;12.300;2023-04-15T04:48:42;10.20;99.90
3727;DHT22;1879;45.876;12.300;2023-04-15T04:51:10;10.30;99.90
3727;DHT22;1879;45.876;12.300;2023-04-15T04:53:38;10.30;99.90
3727;DHT22;1879;45.876;12.300;2023-04-15T04:56:06;10.30;99.90
3727;DHT22;1879;45.876;12.300;2023-04-15T04:58:33;10.30;99.90
3727;DHT22;1879;45.876;12.300;2023-04-15T05:01:03;10.30;99.90
3727;DHT22;1879;45.876;12.300;2023-04-15T05:03:30;10.30;99.90
3727;DHT22;1879;45.876;12.300;2023-04-15T05:05:57;10.40;99.90
3727;DHT22;1879;45.876;12.300;2023-04-15T05:08:24;10.40;99.90
3727;DHT22;1879;45.876;12.300;2023-04-15T05:10:52;10.50;99.90
3727;DHT22;1879;45.876;12.300;2023-04-15T05:13:19;10.50;99.90
3727;DHT22;1879;45.876;12.300;2023-04-15T05:15:46;10.60;99.90
3727;DHT22;1879;45.876;12.300;2023-04-15T05:18:13;10.60;99.90
3727;DHT22;1879;45.876;12.300;2023-04-15T05:20:40;10.70;99.90
3727;DHT22;1879;45.876;12.300;2023-04-15T05:23:07;10.60;99.90
3727;DHT22;1879;45.876;12.300;2023-04-15T05:25:34;10.60;99.90
3727;DHT22;1879;45.876;12.300;2023-04-15T05:28:04;10.70;99.90
3727;DHT22;1879;45.876;12.300;2023-04-15T05:30:31;10.70;99.90
3727;DHT22;1879;45.876;12.300;2023-04-15T05:32:58;10.70;99.90
3727;DHT22;1879;45.876;12.300;2023-04-15T05:35:25;10.70;99.90
3727;DHT22;1879;45.876;12.300;2023-04-15T05:37:52;10.70;99.90
3727;DHT22;1879;45.876;12.300;2023-04-15T05:40:19;10.60;99.90
3727;DHT22;1879;45.876;12.300;2023-04-15T05:42:46;10.60;99.90
3727;DHT22;1879;45.876;12.300;2023-04-15T05:45:14;10.50;99.90
3727;DHT22;1879;45.876;12.300;2023-04-15T05:47:41;10.40;99.90
3727;DHT22;1879;45.876;12.300;2023-04-15T05:50:09;10.40;99.90
3727;DHT22;1879;45.876;12.300;2023-04-15T05:52:36;10.50;99.90
3727;DHT22;1879;45.876;12.300;2023-04-15T05:55:03;10.50;99.90
3727;DHT22;1879;45.876;12.300;2023-04-15T05:57:30;10.50;99.90
3727;DHT22;1879;45.876;12.300;2023-04-15T05:59:57;10.50;99.90
3727;DHT22;1879;45.876;12.300;2023-04-15T06:02:26;10.50;99.90
3727;DHT22;1879;45.876;12.300;2023-04-15T06:04:53;10.60;99.90
3727;DHT22;1879;45.876;12.300;2023-04-15T06:07:20;10.60;99.90
3727;DHT22;1879;45.876;12.300;2023-04-15T06:09:47;10.60;99.90
3727;DHT22;1879;45.876;12.300;2023-04-15T06:12:14;10.70;99.90
3727;DHT22;1879;45.876;12.300;2023-04-15T06:14:41;10.80;99.90
3727;DHT22;1879;45.876;12.300;2023-04-15T06:17:08;10.90;99.90
3727;DHT22;1879;45.876;12.300;2023-04-15T06:19:37;11.10;99.90
3727;DHT22;1879;45.876;12.300;2023-04-15T06:22:04;11.20;99.90
3727;DHT22;1879;45.876;12.300;2023-04-15T06:24:31;11.30;99.90
3727;DHT22;1879;45.876;12.300;2023-04-15T06:26:58;11.40;99.90
3727;DHT22;1879;45.876;12.300;2023-04-15T06:29:26;11.50;99.90
3727;DHT22;1879;45.876;12.300;2023-04-15T06:31:53;11.60;99.90
3727;DHT22;1879;45.876;12.300;2023-04-15T06:34:20;11.80;99.90
3727;DHT22;1879;45.876;12.300;2023-04-15T06:36:49;11.90;99.90
3727;DHT22;1879;45.876;12.300;2023-04-15T06:39:16;12.10;99.90
3727;DHT22;1879;45.876;12.300;2023-04-15T06:41:43;12.20;99.90
3727;DHT22;1879;45.876;12.300;2023-04-15T06:44:10;12.30;99.90
3727;DHT22;1879;45.876;12.300;2023-04-15T06:46:37;12.50;99.90
3727;DHT22;1879;45.876;12.300;2023-04-15T06:49:04;12.60;99.90
3727;DHT22;1879;45.876;12.300;2023-04-15T06:51:31;12.80;99.90
3727;DHT22;1879;45.876;12.300;2023-04-15T06:53:59;12.80;99.90
3727;DHT22;1879;45.876;12.300;2023-04-15T06:56:27;12.90;99.90
3727;DHT22;1879;45.876;12.300;2023-04-15T06:58:54;13.00;99.90
3727;DHT22;1879;45.876;12.300;2023-04-15T07:01:21;13.00;99.90
3727;DHT22;1879;45.876;12.300;2023-04-15T07:03:48;13.10;99.90
3727;DHT22;1879;45.876;12.300;2023-04-15T07:06:15;13.10;99.90
3727;DHT22;1879;45.876;12.300;2023-04-15T07:08:42;13.20;99.90
3727;DHT22;1879;45.876;12.300;2023-04-15T07:11:11;13.30;99.90
3727;DHT22;1879;45.876;12.300;2023-04-15T07:13:38;13.30;99.90
3727;DHT22;1879;45.876;12.300;2023-04-15T07:16:05;13.40;99.90
3727;DHT22;1879;45.876;12.300;2023-04-15T07:18:32;13.50;99.90
3727;DHT22;1879;45.876;12.300;2023-04-15T07:20:59;13.50;99.90
3727;DHT22;1879;45.876;12.300;2023-04-15T07:23:26;13.50;99.90
3727;DHT22;1879;45.876;12.300;2023-04-15T07:25:53;13.60;99.90
3727;DHT22;1879;45.876;12.300;2023-04-15T07:28:21;13.70;99.90
3727;DHT22;1879;45.876;12.300;2023-04-15T07:30:48;13.70;99.90
3727;DHT22;1879;45.876;12.300;2023-04-15T07:33:15;13.60;99.90
3727;DHT22;1879;45.876;12.300;2023-04-15T07:35:42;13.50;99.90
3727;DHT22;1879;45.876;12.300;2023-04-15T07:38:09;13.60;99.90
3727;DHT22;1879;45.876;12.300;2023-04-15T07:40:38;13.60;99.90
3727;DHT22;1879;45.876;12.300;2023-04-15T07:43:05;13.80;99.90
3727;DHT22;1879;45.876;12.300;2023-04-15T07:45:33;13.80;99.90
3727;DHT22;1879;45.876;12.300;2023-04-15T07:48:00;13.90;99.90
3727;DHT22;1879;45.876;12.300;2023-04-15T07:50:28;13.90;99.90
3727;DHT22;1879;45.876;12.300;2023-04-15T07:52:55;13.90;99.90
3727;DHT22;1879;45.876;12.300;2023-04-15T07:55:22;13.90;99.90
3727;DHT22;1879;45.876;12.300;2023-04-15T07:57:49;14.00;99.90
3727;DHT22;1879;45.876;12.300;2023-04-15T08:00:16;14.00;99.90
3727;DHT22;1879;45.876;12.300;2023-04-15T08:02:45;14.10;99.90
3727;DHT22;1879;45.876;12.300;2023-04-15T08:05:13;14.10;99.90
3727;DHT22;1879;45.876;12.300;2023-04-15T08:07:40;14.20;99.90
3727;DHT22;1879;45.876;12.300;2023-04-15T08:10:07;14.20;99.90
3727;DHT22;1879;45.876;12.300;2023-04-15T08:12:35;14.30;99.90
3727;DHT22;1879;45.876;12.300;2023-04-15T08:15:03;14.40;99.90
3727;DHT22;1879;45.876;12.300;2023-04-15T08:17:30;14.50;99.90
3727;DHT22;1879;45.876;12.300;2023-04-15T08:19:58;14.60;99.90
3727;DHT22;1879;45.876;12.300;2023-04-15T08:22:25;14.80;99.90
3727;DHT22;1879;45.876;12.300;2023-04-15T08:24:53;14.90;99.90
3727;DHT22;1879;45.876;12.300;2023-04-15T08:27:20;15.10;99.90
3727;DHT22;1879;45.876;12.300;2023-04-15T08:29:47;15.10;99.90
3727;DHT22;1879;45.876;12.300;2023-04-15T08:32:14;15.10;99.90
3727;DHT22;1879;45.876;12.300;2023-04-15T08:34:41;15.10;99.90
3727;DHT22;1879;45.876;12.300;2023-04-15T08:37:09;15.10;99.90
3727;DHT22;1879;45.876;12.300;2023-04-15T08:39:36;15.10;99.90
3727;DHT22;1879;45.876;12.300;2023-04-15T08:42:05;15.10;99.90
3727;DHT22;1879;45.876;12.300;2023-04-15T08:44:37;15.00;99.90
3727;DHT22;1879;45.876;12.300;2023-04-15T08:47:07;15.20;99.90
3727;DHT22;1879;45.876;12.300;2023-04-15T08:49:38;15.30;99.90
3727;DHT22;1879;45.876;12.300;2023-04-15T08:52:06;15.70;99.90
3727;DHT22;1879;45.876;12.300;2023-04-15T08:54:35;15.90;99.90
3727;DHT22;1879;45.876;12.300;2023-04-15T08:57:03;16.00;99.90
3727;DHT22;1879;45.876;12.300;2023-04-15T08:59:30;16.10;99.90
3727;DHT22;1879;45.876;12.300;2023-04-15T09:01:58;16.20;99.90
3727;DHT22;1879;45.876;12.300;2023-04-15T09:04:26;16.30;99.90
3727;DHT22;1879;45.876;12.300;2023-04-15T09:06:53;16.40;99.90
3727;DHT22;1879;45.876;12.300;2023-04-15T09:09:21;16.40;99.90
3727;DHT22;1879;45.876;12.300;2023-04-15T09:11:50;16.50;99.90
3727;DHT22;1879;45.876;12.300;2023-04-15T09:14:17;16.60;99.90
3727;DHT22;1879;45.876;12.300;2023-04-15T09:16:57;16.60;99.90
3727;DHT22;1879;45.876;12.300;2023-04-15T09:19:24;16.50;99.90
3727;DHT22;1879;45.876;12.300;2023-04-15T09:21:53;16.70;99.90
3727;DHT22;1879;45.876;12.300;2023-04-15T09:24:21;16.80;99.90
3727;DHT22;1879;45.876;12.300;2023-04-15T09:26:53;16.80;99.90
3727;DHT22;1879;45.876;12.300;2023-04-15T09:29:23;16.80;99.90
3727;DHT22;1879;45.876;12.300;2023-04-15T09:31:51;16.90;99.90
3727;DHT22;1879;45.876;12.300;2023-04-15T09:34:18;17.00;99.20
3727;DHT22;1879;45.876;12.300;2023-04-15T09:36:53;17.10;99.10
3727;DHT22;1879;45.876;12.300;2023-04-15T09:39:20;17.10;99.00
3727;DHT22;1879;45.876;12.300;2023-04-15T09:42:04;17.20;98.70
3727;DHT22;1879;45.876;12.300;2023-04-15T09:44:32;17.40;98.40
3727;DHT22;1879;45.876;12.300;2023-04-15T09:46:59;17.60;97.60
3727;DHT22;1879;45.876;12.300;2023-04-15T09:49:26;17.80;98.10
3727;DHT22;1879;45.876;12.300;2023-04-15T09:51:57;17.80;97.50
3727;DHT22;1879;45.876;12.300;2023-04-15T09:54:32;17.80;96.60
3727;DHT22;1879;45.876;12.300;2023-04-15T09:57:06;17.90;96.80
3727;DHT22;1879;45.876;12.300;2023-04-15T09:59:33;17.90;96.80
3727;DHT22;1879;45.876;12.300;2023-04-15T10:02:03;17.90;96.30
3727;DHT22;1879;45.876;12.300;2023-04-15T10:04:31;18.00;97.00
3727;DHT22;1879;45.876;12.300;2023-04-15T10:07:05;17.90;96.90
3727;DHT22;1879;45.876;12.300;2023-04-15T10:09:35;18.10;96.70
3727;DHT22;1879;45.876;12.300;2023-04-15T10:12:02;18.40;96.90
3727;DHT22;1879;45.876;12.300;2023-04-15T10:14:34;18.40;95.90
3727;DHT22;1879;45.876;12.300;2023-04-15T10:17:03;18.50;95.90
3727;DHT22;1879;45.876;12.300;2023-04-15T10:19:33;18.40;95.00
3727;DHT22;1879;45.876;12.300;2023-04-15T10:22:02;18.30;95.40
3727;DHT22;1879;45.876;12.300;2023-04-15T10:24:30;18.50;95.80
3727;DHT22;1879;45.876;12.300;2023-04-15T10:26:58;18.60;94.80
3727;DHT22;1879;45.876;12.300;2023-04-15T10:29:25;18.70;94.30
3727;DHT22;1879;45.876;12.300;2023-04-15T10:31:55;18.40;93.70
3727;DHT22;1879;45.876;12.300;2023-04-15T10:34:23;18.40;94.30
3727;DHT22;1879;45.876;12.300;2023-04-15T10:36:51;18.40;94.20
3727;DHT22;1879;45.876;12.300;2023-04-15T10:39:38;18.40;94.30
3727;DHT22;1879;45.876;12.300;2023-04-15T10:42:06;18.50;94.10
3727;DHT22;1879;45.876;12.300;2023-04-15T10:44:35;18.70;94.50
3727;DHT22;1879;45.876;12.300;2023-04-15T10:47:09;18.60;93.50
3727;DHT22;1879;45.876;12.300;2023-04-15T10:49:42;18.60;94.10
3727;DHT22;1879;45.876;12.300;2023-04-15T10:52:11;18.60;94.10
3727;DHT22;1879;45.876;12.300;2023-04-15T10:54:38;18.80;93.80
3727;DHT22;1879;45.876;12.300;2023-04-15T10:57:12;19.00;93.70
3727;DHT22;1879;45.876;12.300;2023-04-15T11:00:01;19.40;93.00
3727;DHT22;1879;45.876;12.300;2023-04-15T11:02:44;19.70;91.90
3727;DHT22;1879;45.876;12.300;2023-04-15T11:05:12;19.90;91.50
3727;DHT22;1879;45.876;12.300;2023-04-15T11:07:48;20.10;91.90
3727;DHT22;1879;45.876;12.300;2023-04-15T11:13:17;20.40;90.80
3727;DHT22;1879;45.876;12.300;2023-04-15T11:15:47;20.30;91.00
3727;DHT22;1879;45.876;12.300;2023-04-15T11:18:17;20.40;91.00
3727;DHT22;1879;45.876;12.300;2023-04-15T11:20:45;20.40;90.80
3727;DHT22;1879;45.876;12.300;2023-04-15T11:23:14;20.20;90.00
3727;DHT22;1879;45.876;12.300;2023-04-15T11:25:42;19.90;89.30
3727;DHT22;1879;45.876;12.300;2023-04-15T11:28:10;20.00;91.10
3727;DHT22;1879;45.876;12.300;2023-04-15T11:30:37;20.10;90.40
3727;DHT22;1879;45.876;12.300;2023-04-15T11:33:06;20.40;90.30
3727;DHT22;1879;45.876;12.300;2023-04-15T11:35:34;20.40;89.10
3727;DHT22;1879;45.876;12.300;2023-04-15T11:38:02;20.10;88.80
3727;DHT22;1879;45.876;12.300;2023-04-15T11:40:30;20.10;89.40
3727;DHT22;1879;45.876;12.300;2023-04-15T11:43:05;20.20;88.80
3727;DHT22;1879;45.876;12.300;2023-04-15T11:45:32;20.30;88.90
3727;DHT22;1879;45.876;12.300;2023-04-15T11:48:06;20.20;88.60
3727;DHT22;1879;45.876;12.300;2023-04-15T11:50:36;20.10;88.10
3727;DHT22;1879;45.876;12.300;2023-04-15T11:53:06;19.90;88.90
3727;DHT22;1879;45.876;12.300;2023-04-15T11:55:41;19.70;87.70
3727;DHT22;1879;45.876;12.300;2023-04-15T11:58:10;19.70;88.10
3727;DHT22;1879;45.876;12.300;2023-04-15T12:00:38;19.60;87.90
3727;DHT22;1879;45.876;12.300;2023-04-15T12:03:18;19.50;86.70
3727;DHT22;1879;45.876;12.300;2023-04-15T12:06:14;19.20;86.10
3727;DHT22;1879;45.876;12.300;2023-04-15T12:09:03;19.20;87.50
3727;DHT22;1879;45.876;12.300;2023-04-15T12:11:41;19.10;86.20
3727;DHT22;1879;45.876;12.300;2023-04-15T12:14:20;19.20;85.30
3727;DHT22;1879;45.876;12.300;2023-04-15T12:16:48;19.40;86.90
3727;DHT22;1879;45.876;12.300;2023-04-15T12:19:17;19.60;85.70
3727;DHT22;1879;45.876;12.300;2023-04-15T12:21:47;19.90;83.70
3727;DHT22;1879;45.876;12.300;2023-04-15T12:24:14;19.90;83.20
3727;DHT22;1879;45.876;12.300;2023-04-15T12:26:46;19.70;82.40
3727;DHT22;1879;45.876;12.300;2023-04-15T12:29:14;19.60;82.80
3727;DHT22;1879;45.876;12.300;2023-04-15T12:31:50;19.60;83.90
3727;DHT22;1879;45.876;12.300;2023-04-15T12:34:17;20.00;83.30
3727;DHT22;1879;45.876;12.300;2023-04-15T12:36:49;20.40;82.30
3727;DHT22;1879;45.876;12.300;2023-04-15T12:39:16;20.20;80.60
3727;DHT22;1879;45.876;12.300;2023-04-15T12:41:43;20.10;80.70
3727;DHT22;1879;45.876;12.300;2023-04-15T12:44:10;20.00;81.70
3727;DHT22;1879;45.876;12.300;2023-04-15T12:46:37;20.00;82.40
3727;DHT22;1879;45.876;12.300;2023-04-15T12:49:04;19.80;82.20
3727;DHT22;1879;45.876;12.300;2023-04-15T12:51:31;19.70;82.40
3727;DHT22;1879;45.876;12.300;2023-04-15T12:53:59;19.70;83.10
3727;DHT22;1879;45.876;12.300;2023-04-15T12:56:26;19.60;83.70
3727;DHT22;1879;45.876;12.300;2023-04-15T12:58:53;19.40;82.70
3727;DHT22;1879;45.876;12.300;2023-04-15T13:01:20;19.00;82.80
3727;DHT22;1879;45.876;12.300;2023-04-15T13:03:47;18.60;83.20
3727;DHT22;1879;45.876;12.300;2023-04-15T13:06:15;18.30;84.20
3727;DHT22;1879;45.876;12.300;2023-04-15T13:08:42;18.20;84.70
3727;DHT22;1879;45.876;12.300;2023-04-15T13:11:11;19.80;85.50
3727;DHT22;1879;45.876;12.300;2023-04-15T13:13:38;20.10;81.20
3727;DHT22;1879;45.876;12.300;2023-04-15T13:16:05;19.80;81.60
3727;DHT22;1879;45.876;12.300;2023-04-15T13:18:32;19.80;80.90
3727;DHT22;1879;45.876;12.300;2023-04-15T13:21:00;21.80;81.30
3727;DHT22;1879;45.876;12.300;2023-04-15T13:23:27;24.20;70.10
3727;DHT22;1879;45.876;12.300;2023-04-15T13:25:55;24.70;71.00
3727;DHT22;1879;45.876;12.300;2023-04-15T13:28:23;25.00;64.70
3727;DHT22;1879;45.876;12.300;2023-04-15T13:30:50;24.30;63.70
3727;DHT22;1879;45.876;12.300;2023-04-15T13:33:17;24.50;64.20
3727;DHT22;1879;45.876;12.300;2023-04-15T13:35:44;24.20;62.20
3727;DHT22;1879;45.876;12.300;2023-04-15T13:38:11;24.30;63.10
3727;DHT22;1879;45.876;12.300;2023-04-15T13:40:38;24.90;62.70
3727;DHT22;1879;45.876;12.300;2023-04-15T13:43:05;25.50;61.10
3727;DHT22;1879;45.876;12.300;2023-04-15T13:45:33;25.60;59.10
3727;DHT22;1879;45.876;12.300;2023-04-15T13:48:00;25.70;58.70
3727;DHT22;1879;45.876;12.300;2023-04-15T13:50:27;26.50;57.40
3727;DHT22;1879;45.876;12.300;2023-04-15T13:52:54;27.00;56.10
3727;DHT22;1879;45.876;12.300;2023-04-15T13:55:21;27.40;54.50
3727;DHT22;1879;45.876;12.300;2023-04-15T13:57:48;27.60;52.30
3727;DHT22;1879;45.876;12.300;2023-04-15T14:00:16;28.10;51.80
3727;DHT22;1879;45.876;12.300;2023-04-15T14:02:44;28.70;49.10
3727;DHT22;1879;45.876;12.300;2023-04-15T14:05:11;29.00;48.40
3727;DHT22;1879;45.876;12.300;2023-04-15T14:07:38;28.80;47.30
3727;DHT22;1879;45.876;12.300;2023-04-15T14:10:06;29.20;47.30
3727;DHT22;1879;45.876;12.300;2023-04-15T14:12:33;29.70;46.90
3727;DHT22;1879;45.876;12.300;2023-04-15T14:15:00;30.00;44.30
3727;DHT22;1879;45.876;12.300;2023-04-15T14:17:28;30.10;42.70
3727;DHT22;1879;45.876;12.300;2023-04-15T14:19:57;30.00;40.40
3727;DHT22;1879;45.876;12.300;2023-04-15T14:22:24;30.00;39.20
3727;DHT22;1879;45.876;12.300;2023-04-15T14:24:50;29.90;39.40
3727;DHT22;1879;45.876;12.300;2023-04-15T14:27:20;29.60;37.50
3727;DHT22;1879;45.876;12.300;2023-04-15T14:29:47;29.40;38.40
3727;DHT22;1879;45.876;12.300;2023-04-15T14:32:14;29.40;39.40
3727;DHT22;1879;45.876;12.300;2023-04-15T14:34:41;28.40;39.50
3727;DHT22;1879;45.876;12.300;2023-04-15T14:37:09;26.60;41.10
3727;DHT22;1879;45.876;12.300;2023-04-15T14:39:36;25.20;43.40
3727;DHT22;1879;45.876;12.300;2023-04-15T14:42:04;24.60;46.10
3727;DHT22;1879;45.876;12.300;2023-04-15T14:44:31;24.30;48.90
3727;DHT22;1879;45.876;12.300;2023-04-15T14:46:58;23.60;51.10
3727;DHT22;1879;45.876;12.300;2023-04-15T14:49:25;22.80;52.30
3727;DHT22;1879;45.876;12.300;2023-04-15T14:51:52;22.10;53.80
3727;DHT22;1879;45.876;12.300;2023-04-15T14:54:20;21.40;53.70
3727;DHT22;1879;45.876;12.300;2023-04-15T14:56:47;20.90;53.90
3727;DHT22;1879;45.876;12.300;2023-04-15T14:59:14;20.50;53.30
3727;DHT22;1879;45.876;12.300;2023-04-15T15:01:41;20.20;54.60
3727;DHT22;1879;45.876;12.300;2023-04-15T15:04:09;19.90;55.10
3727;DHT22;1879;45.876;12.300;2023-04-15T15:06:36;19.80;55.10
3727;DHT22;1879;45.876;12.300;2023-04-15T15:09:03;19.90;54.70
3727;DHT22;1879;45.876;12.300;2023-04-15T15:11:31;19.80;55.30
3727;DHT22;1879;45.876;12.300;2023-04-15T15:13:58;19.70;55.30
3727;DHT22;1879;45.876;12.300;2023-04-15T15:16:26;19.60;55.50
3727;DHT22;1879;45.876;12.300;2023-04-15T15:18:54;19.90;56.70
3727;DHT22;1879;45.876;12.300;2023-04-15T15:21:21;20.60;56.80
3727;DHT22;1879;45.876;12.300;2023-04-15T15:23:48;21.30;56.40
3727;DHT22;1879;45.876;12.300;2023-04-15T15:26:15;21.70;55.30
3727;DHT22;1879;45.876;12.300;2023-04-15T15:28:45;22.20;54.60
3727;DHT22;1879;45.876;12.300;2023-04-15T15:31:13;22.90;56.90
3727;DHT22;1879;45.876;12.300;2023-04-15T15:33:40;23.80;55.30
3727;DHT22;1879;45.876;12.300;2023-04-15T15:36:07;24.40;55.30
3727;DHT22;1879;45.876;12.300;2023-04-15T15:38:35;25.10;53.60
3727;DHT22;1879;45.876;12.300;2023-04-15T15:41:02;25.60;53.50
3727;DHT22;1879;45.876;12.300;2023-04-15T15:43:29;25.60;52.40
3727;DHT22;1879;45.876;12.300;2023-04-15T15:45:58;25.10;50.60
3727;DHT22;1879;45.876;12.300;2023-04-15T15:48:25;24.60;51.10
3727;DHT22;1879;45.876;12.300;2023-04-15T15:50:52;24.30;52.30
3727;DHT22;1879;45.876;12.300;2023-04-15T15:53:19;23.80;52.70
3727;DHT22;1879;45.876;12.300;2023-04-15T15:55:48;23.30;52.10